createdAt,value
2023-05-23T00:00:08.123Z,17.34
2023-05-23T00:02:36.149Z,17.26
2023-05-23T00:05:07.360Z,17.18
2023-05-23T00:07:35.621Z,17.22
2023-05-23T00:10:03.707Z,17.14
2023-05-23T00:12:32.074Z,17.17
2023-05-23T00:15:00.174Z,17.28
2023-05-23T00:17:28.387Z,17.37
2023-05-23T00:19:57.409Z,17.42
2023-05-23T00:22:28.507Z,17.42
2023-05-23T00:24:57.891Z,17.46
2023-05-23T00:27:26.240Z,17.51
2023-05-23T00:29:54.534Z,17.33
2023-05-23T00:32:22.631Z,17.09
2023-05-23T00:34:50.645Z,17.12
2023-05-23T00:37:18.965Z,17.11
2023-05-23T00:39:49.374Z,17.03
2023-05-23T00:42:18.015Z,16.89
2023-05-23T00:44:48.590Z,16.93
2023-05-23T00:47:16.950Z,17.03
2023-05-23T00:49:45.639Z,17.10
2023-05-23T00:52:14.173Z,17.15
2023-05-23T00:54:42.709Z,17.26
2023-05-23T00:57:12.640Z,17.37
2023-05-23T00:59:41.672Z,17.38
2023-05-23T01:02:11.855Z,17.45
2023-05-23T01:04:40.555Z,17.41
2023-05-23T01:07:10.408Z,17.35
2023-05-23T01:09:39.012Z,17.36
2023-05-23T01:12:27.179Z,17.31
2023-05-23T01:15:05.269Z,17.11
2023-05-23T01:17:43.551Z,17.18
2023-05-23T01:20:14.538Z,17.23
2023-05-23T01:23:06.968Z,17.33
2023-05-23T01:25:59.937Z,17.28
2023-05-23T01:28:33.673Z,16.96
2023-05-23T01:31:05.236Z,16.99
2023-05-23T01:33:36.065Z,17.06
2023-05-23T01:36:04.738Z,17.12
2023-05-23T01:38:33.070Z,17.11
2023-05-23T01:41:01.590Z,17.15
2023-05-23T01:43:31.774Z,17.03
2023-05-23T01:46:01.881Z,17.06
2023-05-23T01:48:31.040Z,17.08
2023-05-23T01:51:00.147Z,17.13
2023-05-23T01:53:28.908Z,17.17
2023-05-23T01:55:57.289Z,17.14
2023-05-23T01:58:26.082Z,17.13
2023-05-23T02:00:56.199Z,17.05
2023-05-23T02:03:24.741Z,17.08
2023-05-23T02:05:53.191Z,16.86
2023-05-23T02:08:21.759Z,16.87
2023-05-23T02:10:49.910Z,16.86
2023-05-23T02:13:18.169Z,16.88
2023-05-23T02:15:46.496Z,16.82
2023-05-23T02:18:16.377Z,16.81
2023-05-23T02:20:44.525Z,16.77
2023-05-23T02:23:12.930Z,16.78
2023-05-23T02:25:41.330Z,16.77
2023-05-23T02:28:12.480Z,16.82
2023-05-23T02:30:40.636Z,16.96
2023-05-23T02:33:09.503Z,16.98
2023-05-23T02:35:39.641Z,16.94
2023-05-23T02:38:07.809Z,16.87
2023-05-23T02:40:36.092Z,16.78
2023-05-23T02:43:04.025Z,16.72
2023-05-23T02:45:32.313Z,16.68
2023-05-23T02:48:00.360Z,16.54
2023-05-23T02:50:28.608Z,16.51
2023-05-23T02:52:58.197Z,16.67
2023-05-23T02:55:26.500Z,16.71
2023-05-23T02:57:54.426Z,16.70
2023-05-23T03:00:22.716Z,16.64
2023-05-23T03:02:50.716Z,16.66
2023-05-23T03:05:19.937Z,16.70
2023-05-23T03:07:48.063Z,16.69
2023-05-23T03:10:19.338Z,16.59
2023-05-23T03:12:47.597Z,16.63
2023-05-23T03:15:15.554Z,16.59
2023-05-23T03:17:44.043Z,16.47
2023-05-23T03:20:12.698Z,16.52
2023-05-23T03:22:43.583Z,16.33
2023-05-23T03:25:11.620Z,16.37
2023-05-23T03:27:44.087Z,16.37
2023-05-23T03:30:12.226Z,16.50
2023-05-23T03:32:40.211Z,16.54
2023-05-23T03:35:09.075Z,16.41
2023-05-23T03:37:37.083Z,16.40
2023-05-23T03:40:07.159Z,16.48
2023-05-23T03:42:36.447Z,16.46
2023-05-23T03:45:07.395Z,16.46
2023-05-23T03:47:35.920Z,16.40
2023-05-23T03:50:03.968Z,16.48
2023-05-23T03:52:32.229Z,16.28
2023-05-23T03:55:00.044Z,16.33
2023-05-23T03:57:28.124Z,16.29
2023-05-23T03:59:56.014Z,16.40
2023-05-23T04:02:25.649Z,16.49
2023-05-23T04:04:54.334Z,16.39
2023-05-23T04:07:22.935Z,16.35
2023-05-23T04:09:51.043Z,16.39
2023-05-23T04:12:19.398Z,16.43
2023-05-23T04:14:48.599Z,16.48
2023-05-23T04:17:16.681Z,16.36
2023-05-23T04:19:46.076Z,16.40
2023-05-23T04:22:14.009Z,16.40
2023-05-23T04:24:42.101Z,16.35
2023-05-23T04:27:10.266Z,16.18
2023-05-23T04:29:38.501Z,16.12
2023-05-23T04:32:06.855Z,16.09
2023-05-23T04:34:36.318Z,16.22
2023-05-23T04:37:07.246Z,16.25
2023-05-23T04:39:37.751Z,16.18
2023-05-23T04:42:07.440Z,16.26
2023-05-23T04:44:37.682Z,16.05
2023-05-23T04:47:09.062Z,16.08
2023-05-23T04:49:39.974Z,16.14
2023-05-23T04:52:09.542Z,16.15
2023-05-23T04:54:45.095Z,16.19
2023-05-23T04:57:13.474Z,16.22
2023-05-23T04:59:42.807Z,16.31
2023-05-23T05:02:11.140Z,16.21
2023-05-23T05:04:39.053Z,16.22
2023-05-23T05:07:07.859Z,16.04
2023-05-23T05:09:37.561Z,15.97
2023-05-23T05:12:05.791Z,15.95
2023-05-23T05:14:33.972Z,15.97
2023-05-23T05:17:03.057Z,15.96
2023-05-23T05:19:31.942Z,16.08
2023-05-23T05:22:00.504Z,16.14
2023-05-23T05:24:31.529Z,16.03
2023-05-23T05:27:01.756Z,16.11
2023-05-23T05:29:30.226Z,16.04
2023-05-23T05:31:58.313Z,16.07
2023-05-23T05:34:27.062Z,15.91
2023-05-23T05:36:56.695Z,16.00
2023-05-23T05:39:27.463Z,16.00
2023-05-23T05:41:56.439Z,16.11
2023-05-23T05:44:27.271Z,16.09
2023-05-23T05:46:56.046Z,16.24
2023-05-23T05:49:24.538Z,16.20
2023-05-23T05:51:54.659Z,16.17
2023-05-23T05:54:23.238Z,16.17
2023-05-23T05:56:51.355Z,16.19
2023-05-23T05:59:19.683Z,16.11
2023-05-23T06:01:51.566Z,16.22
2023-05-23T06:04:20.498Z,16.30
2023-05-23T06:06:48.831Z,16.41
2023-05-23T06:09:16.795Z,16.42
2023-05-23T06:11:44.802Z,16.56
2023-05-23T06:14:12.717Z,16.71
2023-05-23T06:16:41.402Z,16.74
2023-05-23T06:19:11.158Z,16.77
2023-05-23T06:21:39.789Z,16.72
2023-05-23T06:24:08.173Z,16.72
2023-05-23T06:26:38.266Z,16.65
2023-05-23T06:29:06.878Z,16.63
2023-05-23T06:31:36.433Z,16.62
2023-05-23T06:34:04.668Z,16.40
2023-05-23T06:36:43.172Z,16.37
2023-05-23T06:39:12.683Z,16.34
2023-05-23T06:41:41.360Z,16.41
2023-05-23T06:44:10.513Z,16.34
2023-05-23T06:46:40.546Z,16.27
2023-05-23T06:49:14.842Z,16.37
2023-05-23T06:51:54.650Z,16.40
2023-05-23T06:54:56.430Z,16.63
2023-05-23T06:57:50.279Z,16.68
2023-05-23T07:00:19.644Z,16.61
2023-05-23T07:02:48.933Z,16.47
2023-05-23T07:05:17.697Z,16.23
2023-05-23T07:07:47.901Z,16.14
2023-05-23T07:10:26.452Z,16.22
2023-05-23T07:12:54.553Z,16.18
2023-05-23T07:15:22.668Z,16.18
2023-05-23T07:17:50.967Z,15.98
2023-05-23T07:20:19.171Z,16.04
2023-05-23T07:22:48.886Z,15.94
2023-05-23T07:25:17.083Z,15.95
2023-05-23T07:27:45.892Z,16.00
2023-05-23T07:30:15.157Z,16.18
2023-05-23T07:32:43.939Z,16.10
2023-05-23T07:35:26.930Z,15.98
2023-05-23T07:37:58.124Z,15.95
2023-05-23T07:40:26.561Z,16.05
2023-05-23T07:42:55.904Z,15.98
2023-05-23T07:45:24.383Z,15.49
2023-05-23T07:47:53.200Z,15.40
2023-05-23T07:50:21.866Z,15.39
2023-05-23T07:52:51.837Z,15.30
2023-05-23T07:55:21.734Z,15.42
2023-05-23T07:57:50.289Z,15.38
2023-05-23T08:00:19.376Z,15.35
2023-05-23T08:02:47.537Z,15.32
2023-05-23T08:05:16.109Z,15.37
2023-05-23T08:07:44.220Z,15.33
2023-05-23T08:10:12.761Z,15.27
2023-05-23T08:12:42.625Z,15.16
2023-05-23T08:15:12.015Z,15.19
2023-05-23T08:17:41.362Z,15.28
2023-05-23T08:20:12.633Z,15.30
2023-05-23T08:22:44.525Z,15.34
2023-05-23T08:25:13.247Z,15.35
2023-05-23T08:27:43.180Z,15.44
2023-05-23T08:30:12.944Z,15.49
2023-05-23T08:32:41.072Z,15.45
2023-05-23T08:35:10.105Z,15.46
2023-05-23T08:37:42.109Z,15.50
2023-05-23T08:40:16.918Z,15.37
2023-05-23T08:42:47.340Z,15.35
2023-05-23T08:45:15.876Z,15.26
2023-05-23T08:47:45.184Z,15.29
2023-05-23T08:50:14.777Z,15.27
2023-05-23T08:52:49.215Z,15.04
2023-05-23T08:55:18.867Z,14.97
2023-05-23T08:57:57.848Z,14.88
2023-05-23T09:00:27.130Z,15.13
2023-05-23T09:02:55.685Z,15.17
2023-05-23T09:05:23.924Z,15.20
2023-05-23T09:07:52.440Z,15.24
2023-05-23T09:10:21.133Z,15.32
2023-05-23T09:12:50.841Z,15.25
2023-05-23T09:15:19.110Z,15.19
2023-05-23T09:17:47.152Z,15.27
2023-05-23T09:20:16.767Z,15.20
2023-05-23T09:22:47.550Z,15.04
2023-05-23T09:25:15.925Z,14.97
2023-05-23T09:27:46.858Z,14.86
2023-05-23T09:30:19.508Z,15.04
2023-05-23T09:33:05.445Z,14.95
2023-05-23T09:35:33.965Z,15.09
2023-05-23T09:38:01.867Z,15.20
2023-05-23T09:40:33.728Z,15.21
2023-05-23T09:43:05.211Z,15.13
2023-05-23T09:45:35.624Z,15.18
2023-05-23T09:48:03.836Z,15.41
2023-05-23T09:50:38.516Z,15.53
2023-05-23T09:53:06.759Z,15.91
2023-05-23T09:55:34.746Z,16.07
2023-05-23T09:58:04.156Z,16.24
2023-05-23T10:00:35.091Z,16.44
2023-05-23T10:03:14.895Z,16.59
2023-05-23T10:05:46.314Z,16.74
2023-05-23T10:08:17.508Z,16.52
2023-05-23T10:11:31.318Z,16.76
2023-05-23T10:14:02.751Z,17.15
2023-05-23T10:16:39.986Z,17.32
2023-05-23T10:19:12.217Z,17.31
2023-05-23T10:21:46.858Z,17.23
2023-05-23T10:24:15.506Z,17.34
2023-05-23T10:26:46.339Z,17.29
2023-05-23T10:29:14.422Z,17.32
2023-05-23T10:31:44.890Z,16.99
2023-05-23T10:34:20.080Z,17.11
2023-05-23T10:36:57.440Z,17.16
2023-05-23T10:39:34.947Z,17.13
2023-05-23T10:42:08.657Z,16.98
2023-05-23T10:44:38.451Z,16.89
2023-05-23T10:47:09.115Z,17.01
2023-05-23T10:49:42.097Z,16.98
2023-05-23T10:52:11.228Z,16.80
2023-05-23T10:54:44.050Z,16.85
2023-05-23T10:57:13.451Z,16.72
2023-05-23T10:59:42.528Z,16.87
2023-05-23T11:02:15.874Z,17.03
2023-05-23T11:04:44.388Z,17.18
2023-05-23T11:07:39.436Z,17.37
2023-05-23T11:10:11.707Z,17.19
2023-05-23T11:12:41.356Z,17.26
2023-05-23T11:15:52.713Z,17.22
2023-05-23T11:18:29.022Z,17.28
2023-05-23T11:20:59.918Z,17.11
2023-05-23T11:23:42.021Z,16.87
2023-05-23T11:26:30.918Z,16.96
2023-05-23T11:28:59.464Z,16.95
2023-05-23T11:31:28.193Z,17.07
2023-05-23T11:33:57.756Z,17.19
2023-05-23T11:36:26.051Z,17.07
2023-05-23T11:38:54.154Z,17.17
2023-05-23T11:41:22.175Z,17.34
2023-05-23T11:43:53.212Z,17.53
2023-05-23T11:46:21.650Z,17.85
2023-05-23T11:48:51.322Z,17.80
2023-05-23T11:51:21.899Z,17.86
2023-05-23T11:53:50.596Z,17.72
2023-05-23T11:56:18.768Z,17.97
2023-05-23T11:58:52.054Z,18.18
2023-05-23T12:01:20.336Z,18.27
2023-05-23T12:03:51.583Z,18.27
2023-05-23T12:06:24.613Z,18.16
2023-05-23T12:08:54.342Z,18.07
2023-05-23T12:11:26.512Z,17.76
2023-05-23T12:13:55.196Z,17.78
2023-05-23T12:16:23.638Z,18.14
2023-05-23T12:18:55.391Z,18.37
2023-05-23T12:21:27.537Z,18.29
2023-05-23T12:23:56.531Z,18.10
2023-05-23T12:26:24.900Z,18.22
2023-05-23T12:28:53.037Z,18.34
2023-05-23T12:31:24.296Z,18.64
2023-05-23T12:33:55.190Z,18.87
2023-05-23T12:36:31.925Z,18.74
2023-05-23T12:39:05.649Z,18.45
2023-05-23T12:41:35.230Z,18.17
2023-05-23T12:44:04.973Z,18.41
2023-05-23T12:46:34.555Z,18.53
2023-05-23T12:49:03.221Z,18.64
2023-05-23T12:51:37.136Z,18.52
2023-05-23T12:54:06.809Z,18.62
2023-05-23T12:56:34.996Z,18.76
2023-05-23T12:59:04.513Z,18.69
2023-05-23T13:01:34.651Z,18.83
2023-05-23T13:04:02.718Z,19.12
2023-05-23T13:06:33.418Z,19.30
2023-05-23T13:09:06.336Z,19.12
2023-05-23T13:11:34.645Z,18.96
2023-05-23T13:14:02.832Z,19.02
2023-05-23T13:16:31.182Z,19.05
2023-05-23T13:19:00.305Z,18.98
2023-05-23T13:21:29.232Z,19.21
2023-05-23T13:23:59.421Z,19.14
2023-05-23T13:26:27.940Z,19.26
2023-05-23T13:28:56.492Z,19.46
2023-05-23T13:31:24.984Z,19.45
2023-05-23T13:33:53.428Z,19.46
2023-05-23T13:36:23.898Z,19.63
2023-05-23T13:38:52.256Z,19.63
2023-05-23T13:41:22.117Z,19.47
2023-05-23T13:43:50.668Z,19.30
2023-05-23T13:46:18.786Z,19.06
2023-05-23T13:48:47.287Z,19.03
2023-05-23T13:51:15.659Z,19.14
2023-05-23T13:53:44.601Z,19.08
2023-05-23T13:56:12.884Z,19.01
2023-05-23T13:58:43.028Z,19.11
2023-05-23T14:01:11.109Z,19.00
2023-05-23T14:03:39.753Z,18.96
2023-05-23T14:06:12.565Z,18.64
2023-05-23T14:08:41.372Z,18.80
2023-05-23T14:11:13.910Z,18.97
2023-05-23T14:13:45.074Z,18.96
2023-05-23T14:16:15.189Z,18.92
2023-05-23T14:18:43.437Z,18.93
2023-05-23T14:21:12.035Z,19.12
2023-05-23T14:23:40.388Z,19.09
2023-05-23T14:26:09.117Z,19.43
2023-05-23T14:28:39.839Z,19.57
2023-05-23T14:31:10.247Z,19.44
2023-05-23T14:33:39.443Z,19.51
2023-05-23T14:36:08.666Z,19.27
2023-05-23T14:38:40.123Z,19.03
2023-05-23T14:41:08.584Z,19.02
2023-05-23T14:43:37.555Z,18.76
2023-05-23T14:46:10.231Z,18.78
2023-05-23T14:48:41.982Z,18.49
2023-05-23T14:51:11.263Z,18.46
2023-05-23T14:53:40.349Z,18.39
2023-05-23T14:56:18.386Z,18.32
2023-05-23T14:58:48.157Z,18.40
2023-05-23T15:01:18.765Z,18.32
2023-05-23T15:03:47.463Z,18.37
2023-05-23T15:06:19.986Z,18.28
2023-05-23T15:08:52.126Z,17.94
2023-05-23T15:11:20.594Z,18.03
2023-05-23T15:13:52.155Z,18.18
2023-05-23T15:16:24.957Z,18.14
2023-05-23T15:18:54.782Z,18.25
2023-05-23T15:21:50.936Z,18.31
2023-05-23T15:24:28.363Z,18.39
2023-05-23T15:27:08.175Z,18.24
2023-05-23T15:29:47.355Z,18.07
2023-05-23T15:32:18.413Z,18.14
2023-05-23T15:34:47.064Z,18.28
2023-05-23T15:37:15.315Z,18.25
2023-05-23T15:39:56.219Z,18.16
2023-05-23T15:42:24.712Z,18.14
2023-05-23T15:44:52.823Z,18.38
2023-05-23T15:47:22.541Z,18.35
2023-05-23T15:50:00.759Z,18.28
2023-05-23T15:52:39.606Z,18.18
2023-05-23T15:55:12.783Z,18.34
2023-05-23T15:59:05.706Z,18.32
2023-05-23T16:01:33.378Z,18.35
2023-05-23T16:04:37.401Z,18.39
2023-05-23T16:07:34.618Z,18.32
2023-05-23T16:10:50.657Z,18.24
2023-05-23T16:13:31.706Z,18.12
2023-05-23T16:16:00.256Z,18.05
2023-05-23T16:18:58.359Z,18.16
2023-05-23T16:21:32.581Z,18.18
2023-05-23T16:24:10.520Z,18.12
2023-05-23T16:29:57.017Z,18.06
2023-05-23T16:56:19.991Z,17.23
2023-05-23T16:58:50.600Z,17.20
2023-05-23T17:05:33.008Z,17.17
2023-05-23T17:08:57.059Z,17.15
2023-05-23T17:11:32.796Z,17.08
2023-05-23T17:17:51.641Z,17.17
2023-05-23T17:20:46.465Z,17.23
2023-05-23T17:27:32.999Z,17.23
2023-05-23T17:30:59.586Z,17.22
2023-05-23T17:34:07.541Z,17.23
2023-05-23T17:37:04.607Z,17.11
2023-05-23T17:39:58.816Z,17.11
2023-05-23T17:42:32.373Z,17.09
2023-05-23T17:45:05.148Z,17.02
2023-05-23T17:47:50.487Z,16.96
2023-05-23T17:53:15.595Z,16.80
2023-05-23T17:55:44.566Z,16.80
2023-05-23T17:58:13.139Z,16.61
2023-05-23T18:00:41.681Z,16.51
2023-05-23T18:03:12.361Z,16.56
2023-05-23T18:05:40.544Z,16.50
2023-05-23T18:08:08.836Z,16.33
2023-05-23T18:10:40.536Z,16.34
2023-05-23T18:13:09.389Z,16.33
2023-05-23T18:15:50.987Z,16.30
2023-05-23T18:18:21.261Z,16.16
2023-05-23T18:20:49.290Z,16.07
2023-05-23T18:23:17.687Z,16.06
2023-05-23T18:25:45.759Z,16.11
2023-05-23T18:28:14.021Z,16.01
2023-05-23T18:30:42.039Z,15.89
2023-05-23T18:33:10.195Z,15.94
2023-05-23T18:35:40.069Z,16.02
2023-05-23T18:38:08.396Z,16.11
2023-05-23T18:40:38.293Z,15.93
2023-05-23T18:43:09.048Z,16.00
2023-05-23T18:45:42.827Z,15.98
2023-05-23T18:48:11.224Z,16.01
2023-05-23T18:50:41.080Z,15.80
2023-05-23T18:53:09.393Z,15.72
2023-05-23T18:56:01.224Z,15.66
2023-05-23T18:58:33.615Z,15.73
2023-05-23T19:01:04.062Z,15.61
2023-05-23T19:03:33.638Z,15.56
2023-05-23T19:06:07.132Z,15.45
2023-05-23T19:08:53.786Z,15.46
2023-05-23T19:11:24.857Z,15.44
2023-05-23T19:13:53.024Z,15.43
2023-05-23T19:16:21.726Z,15.25
2023-05-23T19:18:50.148Z,15.08
2023-05-23T19:21:21.072Z,15.07
2023-05-23T19:23:49.529Z,15.00
2023-05-23T19:26:19.250Z,14.88
2023-05-23T19:28:54.562Z,14.72
2023-05-23T19:31:23.270Z,14.72
2023-05-23T19:33:53.556Z,14.77
2023-05-23T19:36:40.351Z,14.76
2023-05-23T19:39:08.832Z,14.74
2023-05-23T19:41:40.101Z,14.69
2023-05-23T19:44:08.320Z,14.60
2023-05-23T19:46:38.230Z,14.54
2023-05-23T19:49:09.567Z,14.48
2023-05-23T19:51:39.327Z,14.41
2023-05-23T19:54:09.519Z,14.41
2023-05-23T19:56:41.628Z,14.38
2023-05-23T19:59:15.036Z,14.32
2023-05-23T20:01:44.169Z,14.27
2023-05-23T20:04:16.074Z,14.30
2023-05-23T20:09:42.754Z,13.99
2023-05-23T20:12:11.110Z,13.98
2023-05-23T20:14:47.316Z,13.96
2023-05-23T20:17:15.698Z,13.82
2023-05-23T20:20:06.599Z,13.84
2023-05-23T20:22:38.480Z,13.93
2023-05-23T20:25:20.519Z,13.90
2023-05-23T20:27:50.660Z,13.84
2023-05-23T20:30:25.448Z,13.84
2023-05-23T20:32:55.115Z,13.81
2023-05-23T20:35:23.831Z,13.83
2023-05-23T20:37:58.647Z,13.74
2023-05-23T20:40:29.726Z,13.75
2023-05-23T20:43:04.518Z,13.63
2023-05-23T20:45:33.742Z,13.58
2023-05-23T20:48:47.844Z,13.41
2023-05-23T20:51:22.896Z,13.37
2023-05-23T20:53:54.959Z,13.24
2023-05-23T20:56:25.136Z,13.28
2023-05-23T20:58:54.429Z,13.15
2023-05-23T21:01:23.726Z,13.08
2023-05-23T21:03:54.019Z,13.13
2023-05-23T21:06:22.588Z,13.11
2023-05-23T21:08:53.093Z,13.07
2023-05-23T21:11:23.296Z,13.09
2023-05-23T21:13:51.590Z,13.15
2023-05-23T21:16:19.838Z,12.97
2023-05-23T21:18:48.295Z,12.84
2023-05-23T21:21:22.062Z,12.90
2023-05-23T21:23:52.224Z,12.88
2023-05-23T21:26:22.454Z,12.90
2023-05-23T21:28:54.689Z,12.89
2023-05-23T21:31:33.154Z,12.86
2023-05-23T21:34:23.378Z,12.88
2023-05-23T21:36:52.317Z,12.82
2023-05-23T21:39:20.708Z,12.82
2023-05-23T21:41:51.000Z,12.68
2023-05-23T21:44:25.465Z,12.61
2023-05-23T21:46:53.914Z,12.53
2023-05-23T21:49:23.286Z,12.53
2023-05-23T21:51:51.563Z,12.53
2023-05-23T21:54:20.086Z,12.43
2023-05-23T21:56:48.357Z,12.40
2023-05-23T21:59:16.714Z,12.36
2023-05-23T22:01:46.479Z,12.38
2023-05-23T22:04:14.800Z,12.41
2023-05-23T22:06:43.123Z,12.45
2023-05-23T22:09:11.821Z,12.45
2023-05-23T22:11:40.164Z,12.43
2023-05-23T22:14:08.614Z,12.32
2023-05-23T22:16:39.542Z,12.28
2023-05-23T22:19:10.395Z,12.31
2023-05-23T22:21:41.938Z,12.26
2023-05-23T22:24:10.191Z,12.20
2023-05-23T22:26:39.573Z,12.22
2023-05-23T22:29:07.966Z,12.15
2023-05-23T22:31:38.981Z,12.06
2023-05-23T22:34:10.872Z,12.03
2023-05-23T22:36:39.196Z,11.99
2023-05-23T22:39:14.289Z,11.98
2023-05-23T22:41:42.585Z,11.98
2023-05-23T22:44:10.814Z,11.94
2023-05-23T22:46:40.060Z,11.93
2023-05-23T22:49:10.355Z,11.86
2023-05-23T22:51:44.837Z,11.85
2023-05-23T22:54:13.194Z,11.77
2023-05-23T22:56:42.908Z,11.72
2023-05-23T22:59:11.227Z,11.69
2023-05-23T23:01:39.629Z,11.63
2023-05-23T23:04:15.199Z,11.60
2023-05-23T23:06:45.395Z,11.61
2023-05-23T23:09:18.086Z,11.66
2023-05-23T23:11:46.344Z,11.67
2023-05-23T23:14:14.634Z,11.69
2023-05-23T23:16:43.564Z,11.66
2023-05-23T23:19:13.669Z,11.62
2023-05-23T23:21:44.096Z,11.57
2023-05-23T23:24:13.950Z,11.50
2023-05-23T23:26:42.061Z,11.52
2023-05-23T23:29:12.489Z,11.46
2023-05-23T23:31:40.819Z,11.44
2023-05-23T23:34:08.928Z,11.45
2023-05-23T23:36:40.182Z,11.41
2023-05-23T23:39:10.111Z,11.41
2023-05-23T23:41:41.285Z,11.38
2023-05-23T23:44:09.685Z,11.33
2023-05-23T23:46:43.589Z,11.30
2023-05-23T23:49:11.822Z,11.20
2023-05-23T23:51:41.593Z,11.21
2023-05-23T23:54:10.379Z,11.20
2023-05-23T23:56:41.617Z,11.21
2023-05-23T23:59:09.757Z,11.20
